Detalii statie FIRST FARMS FAUREI [00001992]

Toti senzorii

Date Temperatura solului [C]Precipitatii [mm]Voltaj baterie [mV]Leaf Wetness [Min]HC Air temperature [C]HC Relative humidity [%]Punctul de roua [C]
medieminmaxsumaultimatimpmedieminmaxmediemediemin
2019-06-15 17:00:00 30.1 30 30.3 0.2 6992 25.05 22.79 32.65 60.49 16.4 13.9
2019-06-15 18:00:00 29.5 29 30 0.6 6844 22.03 21.56 22.64 87.29 19.6 18.4
2019-06-15 19:00:00 28.6 28.2 29.1 0.6 6826 21.52 21.01 22.34 99.48 21.3 21
2019-06-15 20:00:00 27.8 27.4 28.3 0 6806 20.55 20.35 20.91 100 20.5 20.3
2019-06-15 21:00:00 27 26.8 27.4 0 6796 20.34 20.16 20.65 100 20.3 20.1
2019-06-15 22:00:00 26.4 26.2 26.8 0 6806 20.1 19.92 20.24 100 20 19.9
2019-06-15 23:00:00 25.9 25.7 26.3 0 6786 19.6 19.05 19.97 100 19.5 19
2019-06-16 00:00:00 25.5 25.3 25.7 0 6786 18.49 17.97 19 100 18.4 17.9
2019-06-16 01:00:00 25 24.7 25.3 0 6776 17.83 17.44 18.33 100 17.7 17.4
2019-06-16 02:00:00 24.5 24.3 24.7 0 6766 17.15 16.83 17.6 100 17.1 16.8
2019-06-16 03:00:00 24 23.8 24.3 0 6728 16.81 16.54 17.01 89.6 0
2019-06-16 04:00:00 23.6 23.4 23.9 0 6756 16.52 16.31 16.8 0.67 0
2019-06-16 05:00:00 23.3 23.1 23.5 0.2 6748 16.49 16.32 16.76 0.28 0
2019-06-16 06:00:00 23 22.9 23.2 0 6834 17.64 16.76 18.72 0 0 0
2019-06-16 07:00:00 22.8 22.8 22.9 0 7010 20.07 18.91 21.4 0 0 0
2019-06-16 08:00:00 22.8 22.7 23 0 7166 23.72 22.27 24.75 0 0 0
2019-06-16 09:00:00 23.3 23 23.7 0 7196 25.87 24.69 26.94 10.47 0
2019-06-16 10:00:00 24.2 23.9 24.9 0 7186 28.19 26.9 29.28 6.15 0
2019-06-16 11:00:00 25.3 24.6 26 0 7186 30.24 28.63 31.34 10 0
2019-06-16 12:00:00 26.7 26.2 27.3 0 7186 31.29 30.46 33.34 3.75 -2.1 0
2019-06-16 13:00:00 28 27.6 28.6 0 7186 32.92 31.4 34.21 0.65 -3 0
2019-06-16 14:00:00 29.1 28.5 29.5 0 7186 33.85 33.19 34.68 0.06 0 0
2019-06-16 15:00:00 30 29.8 30.5 0 7186 33.8 32.78 35.01 3.95 0
2019-06-16 16:00:00 30.7 30.5 30.8 0 7176 33.8 32.36 34.77 4.97 -0.6 0
2019-06-16 17:00:00 30.9 30.8 31.1 0 7020 32.12 31.86 32.78 2.37 -3.8 0
2019-06-16 18:00:00 31 31 31.1 0 6874 29.54 26.51 32.23 1.15 0
2019-06-16 19:00:00 30.7 30.3 31.1 0 6806 24.51 23.59 26.2 11.09 1.3 0
2019-06-16 20:00:00 29.9 29.7 30.4 0 6786 24.16 23.71 24.58 32.58 5.3 -10.5
2019-06-16 21:00:00 29.2 29 29.6 0 6786 22.65 21.51 24.21 43.55 6.5 -4.7
2019-06-16 22:00:00 28.5 28.1 29 0 6806 20.4 19.81 21.48 100 20.3 19.8
2019-06-16 23:00:00 27.8 27.6 28.1 0 6796 19.58 19.23 19.97 100 19.5 19.2
2019-06-17 00:00:00 27.2 26.9 27.6 0 6786 19.28 18.85 19.65 100 19.2 18.8
2019-06-17 01:00:00 26.6 26.4 27 0 6776 18.71 18.04 19.43 100 18.6 18
2019-06-17 02:00:00 26.1 25.9 26.4 0 6776 18.22 17.75 19.15 100 18.1 17.7
2019-06-17 03:00:00 25.6 25.5 26 0 6748 19.43 19.14 19.6 37.14 0
2019-06-17 04:00:00 25.2 25.1 25.5 0 6766 19.21 19.07 19.49 0.05 0 0
2019-06-17 05:00:00 24.9 24.7 25.2 0 6786 19.35 19.12 19.54 0 0 0
2019-06-17 06:00:00 24.5 24.4 24.8 0 6844 20.37 19.48 21.33 0 0 0
2019-06-17 07:00:00 24.3 24.2 24.5 0 7000 23.01 21.65 24.18 0 0 0
2019-06-17 08:00:00 24.3 24.3 24.5 0 7166 25.42 24.36 26.45 0 0 0
2019-06-17 09:00:00 24.8 24.4 25.3 0 7186 27.04 26.54 27.84 0 0 0
2019-06-17 10:00:00 25.7 25.2 26.3 0 7186 28.97 27.69 29.95 0 0 0
2019-06-17 11:00:00 26.7 26.2 27.3 0 7186 30.3 29.54 31.13 0 0 0
2019-06-17 12:00:00 28 27.4 28.6 0 7186 31.64 30.49 32.72 0.19 0
2019-06-17 13:00:00 29.1 28.7 29.7 0 7186 32.61 32.07 33.24 59.87 0
2019-06-17 14:00:00 30 29.8 30.5 0 7186 33 32.18 33.57 88.02 30.5 27.4
2019-06-17 15:00:00 30.7 30.5 31.1 0 6962 33.31 32.44 34.78 87.98 30.8 28.5
2019-06-17 16:00:00 31 31 31.2 0 7098 32.78 31.9 33.29 59.89 23.1 18.9